sensor_id;sensor_type;location;lat;lon;timestamp;pressure;altitude;pressure_sealevel;temperature;humidity
13434;BME280;6789;47.678;9.158;2023-07-09T00:00:17;97177.88;;;21.37;81.90
13434;BME280;6789;47.678;9.158;2023-07-09T00:05:17;97182.16;;;21.33;82.67
13434;BME280;6789;47.678;9.158;2023-07-09T00:10:18;97183.72;;;21.06;84.35
13434;BME280;6789;47.678;9.158;2023-07-09T00:15:13;97170.81;;;21.18;83.25
13434;BME280;6789;47.678;9.158;2023-07-09T00:20:18;97174.78;;;21.25;83.68
13434;BME280;6789;47.678;9.158;2023-07-09T00:25:11;97183.16;;;21.14;84.09
13434;BME280;6789;47.678;9.158;2023-07-09T00:30:20;97179.44;;;21.10;85.18
13434;BME280;6789;47.678;9.158;2023-07-09T00:35:15;97179.50;;;21.05;85.90
13434;BME280;6789;47.678;9.158;2023-07-09T00:45:24;97186.09;;;21.12;87.08
13434;BME280;6789;47.678;9.158;2023-07-09T00:50:38;97189.69;;;20.98;87.09
13434;BME280;6789;47.678;9.158;2023-07-09T00:55:39;97198.91;;;20.72;89.04
13434;BME280;6789;47.678;9.158;2023-07-09T01:00:40;97196.03;;;20.64;92.33
13434;BME280;6789;47.678;9.158;2023-07-09T01:05:39;97194.94;;;20.60;92.81
13434;BME280;6789;47.678;9.158;2023-07-09T01:10:31;97200.50;;;20.68;90.62
13434;BME280;6789;47.678;9.158;2023-07-09T01:15:23;97202.41;;;20.63;92.47
13434;BME280;6789;47.678;9.158;2023-07-09T01:20:18;97197.44;;;20.46;94.63
13434;BME280;6789;47.678;9.158;2023-07-09T01:25:17;97201.03;;;20.70;92.76
13434;BME280;6789;47.678;9.158;2023-07-09T01:30:22;97212.22;;;20.72;92.08
13434;BME280;6789;47.678;9.158;2023-07-09T01:35:19;97210.75;;;20.46;96.23
13434;BME280;6789;47.678;9.158;2023-07-09T01:40:16;97212.34;;;20.52;94.33
13434;BME280;6789;47.678;9.158;2023-07-09T01:45:23;97209.22;;;20.83;91.09
13434;BME280;6789;47.678;9.158;2023-07-09T01:50:16;97216.06;;;20.51;95.80
13434;BME280;6789;47.678;9.158;2023-07-09T01:55:13;97218.81;;;20.36;96.22
13434;BME280;6789;47.678;9.158;2023-07-09T02:00:16;97218.84;;;20.26;96.67
13434;BME280;6789;47.678;9.158;2023-07-09T02:05:10;97226.03;;;20.31;96.85
13434;BME280;6789;47.678;9.158;2023-07-09T02:10:03;97221.78;;;20.25;96.91
13434;BME280;6789;47.678;9.158;2023-07-09T02:14:55;97213.53;;;20.21;97.06
13434;BME280;6789;47.678;9.158;2023-07-09T02:19:46;97216.63;;;20.43;96.09
13434;BME280;6789;47.678;9.158;2023-07-09T02:24:38;97226.88;;;20.21;97.57
13434;BME280;6789;47.678;9.158;2023-07-09T02:29:31;97213.63;;;19.87;100.00
13434;BME280;6789;47.678;9.158;2023-07-09T02:34:25;97213.38;;;19.73;100.00
13434;BME280;6789;47.678;9.158;2023-07-09T02:39:18;97220.00;;;19.91;100.00
13434;BME280;6789;47.678;9.158;2023-07-09T02:44:11;97228.56;;;19.78;100.00
13434;BME280;6789;47.678;9.158;2023-07-09T02:49:04;97228.78;;;19.91;100.00
13434;BME280;6789;47.678;9.158;2023-07-09T02:53:59;97233.06;;;19.82;100.00
13434;BME280;6789;47.678;9.158;2023-07-09T02:58:51;97237.09;;;19.65;100.00
13434;BME280;6789;47.678;9.158;2023-07-09T03:03:43;97240.84;;;19.49;100.00
13434;BME280;6789;47.678;9.158;2023-07-09T03:08:35;97242.44;;;19.35;100.00
13434;BME280;6789;47.678;9.158;2023-07-09T03:13:27;97242.41;;;19.65;100.00
13434;BME280;6789;47.678;9.158;2023-07-09T03:18:19;97240.53;;;19.75;100.00
13434;BME280;6789;47.678;9.158;2023-07-09T03:23:11;97249.31;;;19.86;99.01
13434;BME280;6789;47.678;9.158;2023-07-09T03:28:03;97249.84;;;19.98;98.41
13434;BME280;6789;47.678;9.158;2023-07-09T03:32:54;97250.31;;;20.14;96.76
13434;BME280;6789;47.678;9.158;2023-07-09T03:37:46;97259.88;;;20.25;96.11
13434;BME280;6789;47.678;9.158;2023-07-09T03:42:38;97258.03;;;20.26;96.07
13434;BME280;6789;47.678;9.158;2023-07-09T03:47:30;97263.44;;;20.01;97.64
13434;BME280;6789;47.678;9.158;2023-07-09T03:52:22;97251.69;;;19.97;98.41
13434;BME280;6789;47.678;9.158;2023-07-09T03:57:13;97263.41;;;19.91;98.45
13434;BME280;6789;47.678;9.158;2023-07-09T04:02:05;97270.63;;;19.81;100.00
13434;BME280;6789;47.678;9.158;2023-07-09T04:06:58;97273.47;;;20.24;99.03
13434;BME280;6789;47.678;9.158;2023-07-09T04:11:50;97270.50;;;20.98;93.13
13434;BME280;6789;47.678;9.158;2023-07-09T04:16:42;97269.97;;;22.48;84.24
13434;BME280;6789;47.678;9.158;2023-07-09T04:21:34;97256.25;;;23.65;76.97
13434;BME280;6789;47.678;9.158;2023-07-09T04:26:25;97263.75;;;24.40;72.03
13434;BME280;6789;47.678;9.158;2023-07-09T04:31:18;97255.91;;;25.76;65.29
13434;BME280;6789;47.678;9.158;2023-07-09T04:36:10;97263.16;;;26.83;60.51
13434;BME280;6789;47.678;9.158;2023-07-09T04:41:04;97264.53;;;27.61;57.30
13434;BME280;6789;47.678;9.158;2023-07-09T04:45:56;97253.00;;;28.15;55.29
13434;BME280;6789;47.678;9.158;2023-07-09T04:50:47;97265.81;;;28.64;53.57
13434;BME280;6789;47.678;9.158;2023-07-09T04:55:42;97267.69;;;29.00;52.00
13434;BME280;6789;47.678;9.158;2023-07-09T05:00:33;97268.31;;;29.67;50.20
13434;BME280;6789;47.678;9.158;2023-07-09T05:05:25;97265.84;;;29.94;49.36
13434;BME280;6789;47.678;9.158;2023-07-09T05:10:17;97274.78;;;30.63;47.40
13434;BME280;6789;47.678;9.158;2023-07-09T05:15:09;97261.34;;;30.66;47.27
13434;BME280;6789;47.678;9.158;2023-07-09T05:20:01;97273.69;;;31.39;45.93
13434;BME280;6789;47.678;9.158;2023-07-09T05:24:53;97268.47;;;31.58;45.80
13434;BME280;6789;47.678;9.158;2023-07-09T05:29:45;97268.44;;;31.85;45.16
13434;BME280;6789;47.678;9.158;2023-07-09T05:34:37;97264.44;;;32.37;44.61
13434;BME280;6789;47.678;9.158;2023-07-09T05:39:28;97263.50;;;32.02;43.28
13434;BME280;6789;47.678;9.158;2023-07-09T05:44:20;97258.13;;;32.49;41.79
13434;BME280;6789;47.678;9.158;2023-07-09T05:49:12;97259.34;;;32.82;41.01
13434;BME280;6789;47.678;9.158;2023-07-09T05:54:05;97261.97;;;32.32;44.42
13434;BME280;6789;47.678;9.158;2023-07-09T05:58:57;97253.31;;;32.58;40.90
13434;BME280;6789;47.678;9.158;2023-07-09T06:03:49;97266.34;;;32.98;40.54
13434;BME280;6789;47.678;9.158;2023-07-09T06:08:41;97268.63;;;32.35;42.46
13434;BME280;6789;47.678;9.158;2023-07-09T06:13:33;97260.97;;;31.82;44.18
13434;BME280;6789;47.678;9.158;2023-07-09T06:18:26;97263.22;;;31.92;43.79
13434;BME280;6789;47.678;9.158;2023-07-09T06:23:22;97260.69;;;31.99;45.74
13434;BME280;6789;47.678;9.158;2023-07-09T06:28:19;97253.41;;;31.48;44.83
13434;BME280;6789;47.678;9.158;2023-07-09T06:33:14;97256.59;;;30.75;46.81
13434;BME280;6789;47.678;9.158;2023-07-09T06:38:06;97250.41;;;30.07;49.71
13434;BME280;6789;47.678;9.158;2023-07-09T06:42:58;97254.50;;;29.48;50.29
13434;BME280;6789;47.678;9.158;2023-07-09T06:47:50;97248.03;;;29.41;50.41
13434;BME280;6789;47.678;9.158;2023-07-09T06:52:42;97253.75;;;29.39;49.94
13434;BME280;6789;47.678;9.158;2023-07-09T06:57:34;97255.41;;;29.32;51.31
13434;BME280;6789;47.678;9.158;2023-07-09T07:02:26;97255.41;;;29.32;50.66
13434;BME280;6789;47.678;9.158;2023-07-09T07:07:20;97257.84;;;29.25;50.89
13434;BME280;6789;47.678;9.158;2023-07-09T07:12:44;97263.72;;;29.27;51.55
13434;BME280;6789;47.678;9.158;2023-07-09T07:17:36;97250.00;;;29.52;50.26
13434;BME280;6789;47.678;9.158;2023-07-09T07:22:28;97249.25;;;29.43;50.43
13434;BME280;6789;47.678;9.158;2023-07-09T07:27:20;97244.06;;;29.38;50.25
13434;BME280;6789;47.678;9.158;2023-07-09T07:32:12;97248.91;;;28.84;52.49
13434;BME280;6789;47.678;9.158;2023-07-09T07:37:05;97247.78;;;28.85;51.69
13434;BME280;6789;47.678;9.158;2023-07-09T07:41:57;97251.28;;;29.05;52.17
13434;BME280;6789;47.678;9.158;2023-07-09T07:46:49;97237.75;;;29.34;50.69
13434;BME280;6789;47.678;9.158;2023-07-09T07:51:42;97229.34;;;29.27;51.43
13434;BME280;6789;47.678;9.158;2023-07-09T07:56:37;97237.06;;;28.96;52.37
13434;BME280;6789;47.678;9.158;2023-07-09T08:01:31;97232.34;;;28.85;52.50
13434;BME280;6789;47.678;9.158;2023-07-09T08:06:26;97233.31;;;28.89;53.01
13434;BME280;6789;47.678;9.158;2023-07-09T08:11:18;97234.28;;;29.25;51.47
13434;BME280;6789;47.678;9.158;2023-07-09T08:16:10;97239.13;;;29.20;50.53
13434;BME280;6789;47.678;9.158;2023-07-09T08:21:03;97233.25;;;29.38;50.12
13434;BME280;6789;47.678;9.158;2023-07-09T08:25:58;97233.19;;;29.79;49.52
13434;BME280;6789;47.678;9.158;2023-07-09T08:30:55;97230.94;;;30.13;47.55
13434;BME280;6789;47.678;9.158;2023-07-09T08:35:52;97234.19;;;30.31;47.92
13434;BME280;6789;47.678;9.158;2023-07-09T08:40:59;97228.00;;;30.30;48.81
13434;BME280;6789;47.678;9.158;2023-07-09T08:51:10;97214.38;;;30.62;47.58
13434;BME280;6789;47.678;9.158;2023-07-09T08:56:09;97219.88;;;30.90;46.78
13434;BME280;6789;47.678;9.158;2023-07-09T09:01:06;97225.38;;;31.17;44.83
13434;BME280;6789;47.678;9.158;2023-07-09T09:06:19;97224.63;;;30.93;46.43
13434;BME280;6789;47.678;9.158;2023-07-09T09:16:42;97220.16;;;31.24;46.02
13434;BME280;6789;47.678;9.158;2023-07-09T09:21:37;97211.81;;;31.44;45.37
13434;BME280;6789;47.678;9.158;2023-07-09T09:26:34;97207.56;;;31.71;45.01
13434;BME280;6789;47.678;9.158;2023-07-09T09:31:29;97213.72;;;31.98;44.19
13434;BME280;6789;47.678;9.158;2023-07-09T09:36:23;97207.91;;;32.12;42.91
13434;BME280;6789;47.678;9.158;2023-07-09T09:41:20;97208.78;;;32.16;43.26
13434;BME280;6789;47.678;9.158;2023-07-09T09:46:22;97215.16;;;32.54;41.46
13434;BME280;6789;47.678;9.158;2023-07-09T09:51:17;97209.53;;;32.78;41.80
13434;BME280;6789;47.678;9.158;2023-07-09T09:56:24;97214.22;;;33.12;40.75
13434;BME280;6789;47.678;9.158;2023-07-09T10:01:18;97213.34;;;33.08;41.28
13434;BME280;6789;47.678;9.158;2023-07-09T10:06:41;97209.13;;;33.29;41.07
13434;BME280;6789;47.678;9.158;2023-07-09T10:11:55;97205.69;;;32.98;40.66
13434;BME280;6789;47.678;9.158;2023-07-09T10:16:59;97203.63;;;33.26;40.30
13434;BME280;6789;47.678;9.158;2023-07-09T10:22:12;97204.63;;;33.37;40.79
13434;BME280;6789;47.678;9.158;2023-07-09T10:33:17;97199.63;;;33.38;40.87
13434;BME280;6789;47.678;9.158;2023-07-09T10:43:46;97191.19;;;33.62;40.01
13434;BME280;6789;47.678;9.158;2023-07-09T10:49:00;97191.09;;;33.59;36.56
13434;BME280;6789;47.678;9.158;2023-07-09T10:54:35;97190.44;;;33.46;34.53
13434;BME280;6789;47.678;9.158;2023-07-09T10:59:36;97188.53;;;33.28;33.00
13434;BME280;6789;47.678;9.158;2023-07-09T11:04:44;97172.25;;;33.50;32.43
13434;BME280;6789;47.678;9.158;2023-07-09T11:10:36;97169.91;;;33.90;32.78
13434;BME280;6789;47.678;9.158;2023-07-09T11:15:57;97157.25;;;34.01;31.89
13434;BME280;6789;47.678;9.158;2023-07-09T11:21:22;97149.25;;;33.67;32.72
13434;BME280;6789;47.678;9.158;2023-07-09T11:26:35;97143.28;;;33.80;33.06
13434;BME280;6789;47.678;9.158;2023-07-09T11:31:41;97146.38;;;33.79;32.66
13434;BME280;6789;47.678;9.158;2023-07-09T11:37:00;97156.38;;;34.16;31.52
13434;BME280;6789;47.678;9.158;2023-07-09T11:41:56;97150.09;;;34.38;31.25
13434;BME280;6789;47.678;9.158;2023-07-09T11:52:48;97136.03;;;34.58;29.70
13434;BME280;6789;47.678;9.158;2023-07-09T11:58:01;97135.56;;;34.53;29.21
13434;BME280;6789;47.678;9.158;2023-07-09T12:02:55;97135.84;;;34.74;29.63
13434;BME280;6789;47.678;9.158;2023-07-09T12:07:53;97131.59;;;34.76;29.41
13434;BME280;6789;47.678;9.158;2023-07-09T12:12:56;97129.09;;;34.64;28.92
13434;BME280;6789;47.678;9.158;2023-07-09T12:18:08;97134.25;;;34.98;28.93
13434;BME280;6789;47.678;9.158;2023-07-09T12:23:25;97126.91;;;35.35;27.91
13434;BME280;6789;47.678;9.158;2023-07-09T12:28:21;97126.50;;;35.66;26.49
13434;BME280;6789;47.678;9.158;2023-07-09T12:33:18;97113.94;;;35.98;24.74
13434;BME280;6789;47.678;9.158;2023-07-09T12:38:22;97110.09;;;36.02;24.15
13434;BME280;6789;47.678;9.158;2023-07-09T12:43:29;97103.31;;;35.89;23.13
13434;BME280;6789;47.678;9.158;2023-07-09T12:48:27;97105.59;;;35.84;23.74
13434;BME280;6789;47.678;9.158;2023-07-09T12:53:23;97101.22;;;35.76;23.46
13434;BME280;6789;47.678;9.158;2023-07-09T12:58:43;97092.56;;;36.10;24.21
13434;BME280;6789;47.678;9.158;2023-07-09T13:03:36;97096.13;;;36.14;24.04
13434;BME280;6789;47.678;9.158;2023-07-09T13:08:31;97093.34;;;36.11;22.96
13434;BME280;6789;47.678;9.158;2023-07-09T13:13:24;97093.78;;;36.20;22.84
13434;BME280;6789;47.678;9.158;2023-07-09T13:18:16;97089.41;;;36.05;22.39
13434;BME280;6789;47.678;9.158;2023-07-09T13:23:11;97083.94;;;36.05;22.67
13434;BME280;6789;47.678;9.158;2023-07-09T13:28:03;97079.56;;;35.97;22.25
13434;BME280;6789;47.678;9.158;2023-07-09T13:32:55;97081.97;;;36.05;23.50
13434;BME280;6789;47.678;9.158;2023-07-09T13:37:47;97084.03;;;36.19;22.45
13434;BME280;6789;47.678;9.158;2023-07-09T13:42:39;97078.19;;;36.17;22.27
13434;BME280;6789;47.678;9.158;2023-07-09T13:47:33;97077.41;;;36.20;22.73
13434;BME280;6789;47.678;9.158;2023-07-09T13:52:26;97080.44;;;36.08;21.91
13434;BME280;6789;47.678;9.158;2023-07-09T13:57:21;97076.94;;;36.07;22.07
13434;BME280;6789;47.678;9.158;2023-07-09T14:07:37;97065.66;;;36.16;21.89
13434;BME280;6789;47.678;9.158;2023-07-09T14:12:38;97063.78;;;36.27;21.00
13434;BME280;6789;47.678;9.158;2023-07-09T14:17:34;97052.44;;;36.21;20.45
13434;BME280;6789;47.678;9.158;2023-07-09T14:22:37;97051.94;;;36.09;21.43
13434;BME280;6789;47.678;9.158;2023-07-09T14:27:32;97044.25;;;36.25;21.50
13434;BME280;6789;47.678;9.158;2023-07-09T14:32:37;97035.31;;;36.35;18.40
13434;BME280;6789;47.678;9.158;2023-07-09T14:37:55;97031.03;;;36.34;18.39
13434;BME280;6789;47.678;9.158;2023-07-09T14:43:07;97023.47;;;36.10;17.67
13434;BME280;6789;47.678;9.158;2023-07-09T14:48:19;97020.03;;;36.23;18.07
13434;BME280;6789;47.678;9.158;2023-07-09T14:53:26;97009.25;;;36.44;18.93
13434;BME280;6789;47.678;9.158;2023-07-09T14:58:23;97003.63;;;36.27;18.43
13434;BME280;6789;47.678;9.158;2023-07-09T15:03:24;97005.72;;;35.90;18.85
13434;BME280;6789;47.678;9.158;2023-07-09T15:08:22;97005.59;;;35.72;20.09
13434;BME280;6789;47.678;9.158;2023-07-09T15:13:31;97004.78;;;35.68;20.28
13434;BME280;6789;47.678;9.158;2023-07-09T15:18:26;97004.06;;;35.78;20.92
13434;BME280;6789;47.678;9.158;2023-07-09T15:23:39;96992.22;;;35.61;20.09
13434;BME280;6789;47.678;9.158;2023-07-09T15:28:32;96990.03;;;34.97;20.87
13434;BME280;6789;47.678;9.158;2023-07-09T15:33:27;96987.97;;;34.87;20.35
13434;BME280;6789;47.678;9.158;2023-07-09T15:38:38;96994.31;;;34.98;20.51
13434;BME280;6789;47.678;9.158;2023-07-09T15:43:33;96986.72;;;34.81;19.94
13434;BME280;6789;47.678;9.158;2023-07-09T15:48:33;96979.47;;;34.59;20.54
13434;BME280;6789;47.678;9.158;2023-07-09T15:53:26;96979.81;;;34.90;20.62
13434;BME280;6789;47.678;9.158;2023-07-09T15:58:27;96975.16;;;34.91;20.30
13434;BME280;6789;47.678;9.158;2023-07-09T16:03:22;96973.28;;;34.98;20.15
13434;BME280;6789;47.678;9.158;2023-07-09T16:08:18;96966.03;;;34.77;20.25
13434;BME280;6789;47.678;9.158;2023-07-09T16:13:21;96970.94;;;34.61;20.90
13434;BME280;6789;47.678;9.158;2023-07-09T16:18:13;96974.25;;;34.47;20.93
13434;BME280;6789;47.678;9.158;2023-07-09T16:23:27;96982.88;;;34.23;21.25
13434;BME280;6789;47.678;9.158;2023-07-09T16:28:20;96975.41;;;34.46;21.13
13434;BME280;6789;47.678;9.158;2023-07-09T16:33:12;96969.72;;;34.29;21.29
13434;BME280;6789;47.678;9.158;2023-07-09T16:38:10;96964.34;;;34.36;21.29
13434;BME280;6789;47.678;9.158;2023-07-09T16:43:15;96962.34;;;34.33;20.55
13434;BME280;6789;47.678;9.158;2023-07-09T16:48:22;96966.31;;;34.39;20.75
13434;BME280;6789;47.678;9.158;2023-07-09T16:53:17;96963.44;;;34.25;21.25
13434;BME280;6789;47.678;9.158;2023-07-09T16:58:32;96962.41;;;34.36;21.25
13434;BME280;6789;47.678;9.158;2023-07-09T17:03:30;96961.94;;;34.57;21.64
13434;BME280;6789;47.678;9.158;2023-07-09T17:08:31;96946.81;;;34.63;21.39
13434;BME280;6789;47.678;9.158;2023-07-09T17:13:26;96946.03;;;34.66;21.25
13434;BME280;6789;47.678;9.158;2023-07-09T17:23:15;96950.53;;;34.51;21.48
13434;BME280;6789;47.678;9.158;2023-07-09T17:28:22;96952.34;;;34.40;20.29
13434;BME280;6789;47.678;9.158;2023-07-09T17:33:17;96961.44;;;34.51;20.61
13434;BME280;6789;47.678;9.158;2023-07-09T17:38:25;96960.56;;;34.44;19.94
13434;BME280;6789;47.678;9.158;2023-07-09T17:43:23;96962.53;;;34.47;19.64
13434;BME280;6789;47.678;9.158;2023-07-09T17:48:25;96961.59;;;34.32;20.83
13434;BME280;6789;47.678;9.158;2023-07-09T17:53:34;96965.88;;;34.33;20.57
13434;BME280;6789;47.678;9.158;2023-07-09T17:58:38;96960.00;;;34.31;20.33
13434;BME280;6789;47.678;9.158;2023-07-09T18:03:33;96957.56;;;34.23;20.80
13434;BME280;6789;47.678;9.158;2023-07-09T18:08:27;96966.41;;;34.13;21.30
13434;BME280;6789;47.678;9.158;2023-07-09T18:13:26;96954.47;;;33.95;20.46
13434;BME280;6789;47.678;9.158;2023-07-09T18:18:20;96960.63;;;33.92;20.91
13434;BME280;6789;47.678;9.158;2023-07-09T18:23:12;96964.00;;;33.82;22.42
13434;BME280;6789;47.678;9.158;2023-07-09T18:28:06;96954.03;;;33.67;22.86
13434;BME280;6789;47.678;9.158;2023-07-09T18:33:03;96955.94;;;33.19;24.77
13434;BME280;6789;47.678;9.158;2023-07-09T18:37:59;96968.84;;;32.84;24.85
13434;BME280;6789;47.678;9.158;2023-07-09T18:42:51;96961.81;;;32.61;25.40
13434;BME280;6789;47.678;9.158;2023-07-09T18:47:44;96960.31;;;32.44;27.02
13434;BME280;6789;47.678;9.158;2023-07-09T18:52:36;96975.72;;;32.40;29.16
13434;BME280;6789;47.678;9.158;2023-07-09T18:57:28;96971.13;;;32.06;29.19
13434;BME280;6789;47.678;9.158;2023-07-09T19:02:23;96975.03;;;31.75;29.45
13434;BME280;6789;47.678;9.158;2023-07-09T19:07:19;96968.84;;;31.43;29.83
13434;BME280;6789;47.678;9.158;2023-07-09T19:12:11;96975.81;;;31.13;29.89
13434;BME280;6789;47.678;9.158;2023-07-09T19:17:13;96970.88;;;30.88;30.77
13434;BME280;6789;47.678;9.158;2023-07-09T19:22:11;96966.06;;;30.54;31.26
13434;BME280;6789;47.678;9.158;2023-07-09T19:27:04;96983.75;;;30.25;31.54
13434;BME280;6789;47.678;9.158;2023-07-09T19:32:00;96987.66;;;30.00;33.26
13434;BME280;6789;47.678;9.158;2023-07-09T19:37:00;96999.72;;;29.66;33.95
13434;BME280;6789;47.678;9.158;2023-07-09T19:41:55;96994.38;;;29.22;34.52
13434;BME280;6789;47.678;9.158;2023-07-09T19:46:50;97000.06;;;28.97;36.26
13434;BME280;6789;47.678;9.158;2023-07-09T19:51:43;97004.72;;;28.76;36.03
13434;BME280;6789;47.678;9.158;2023-07-09T19:56:34;97013.97;;;28.55;36.85
13434;BME280;6789;47.678;9.158;2023-07-09T20:01:26;97014.31;;;28.33;37.32
13434;BME280;6789;47.678;9.158;2023-07-09T20:06:18;97019.69;;;28.13;38.54
13434;BME280;6789;47.678;9.158;2023-07-09T20:11:12;97013.16;;;27.93;38.69
13434;BME280;6789;47.678;9.158;2023-07-09T20:16:26;97016.41;;;27.78;39.37
13434;BME280;6789;47.678;9.158;2023-07-09T20:21:24;97026.97;;;27.63;40.39
13434;BME280;6789;47.678;9.158;2023-07-09T20:26:16;97022.13;;;27.40;41.01
13434;BME280;6789;47.678;9.158;2023-07-09T20:31:22;97036.91;;;27.25;41.89
13434;BME280;6789;47.678;9.158;2023-07-09T20:36:14;97026.50;;;27.07;42.65
13434;BME280;6789;47.678;9.158;2023-07-09T20:41:17;97029.06;;;26.78;43.61
13434;BME280;6789;47.678;9.158;2023-07-09T20:46:10;97023.06;;;26.64;43.55
13434;BME280;6789;47.678;9.158;2023-07-09T20:51:02;97018.66;;;26.51;44.93
13434;BME280;6789;47.678;9.158;2023-07-09T20:55:57;97024.81;;;26.35;44.59
13434;BME280;6789;47.678;9.158;2023-07-09T21:00:52;97022.91;;;26.18;45.49
13434;BME280;6789;47.678;9.158;2023-07-09T21:05:48;97023.84;;;26.05;46.05
13434;BME280;6789;47.678;9.158;2023-07-09T21:10:42;97023.19;;;25.92;45.49
13434;BME280;6789;47.678;9.158;2023-07-09T21:15:34;97027.13;;;25.86;45.56
13434;BME280;6789;47.678;9.158;2023-07-09T21:20:29;97023.47;;;25.73;46.10
13434;BME280;6789;47.678;9.158;2023-07-09T21:25:24;97019.59;;;25.57;47.42
13434;BME280;6789;47.678;9.158;2023-07-09T21:30:19;97026.50;;;25.41;47.67
13434;BME280;6789;47.678;9.158;2023-07-09T21:35:25;97020.25;;;25.24;47.74
13434;BME280;6789;47.678;9.158;2023-07-09T21:40:34;97036.16;;;25.12;47.62
13434;BME280;6789;47.678;9.158;2023-07-09T21:45:40;97039.38;;;25.01;46.91
13434;BME280;6789;47.678;9.158;2023-07-09T21:50:33;97052.78;;;25.01;47.45
13434;BME280;6789;47.678;9.158;2023-07-09T21:55:27;97054.84;;;24.95;49.17
13434;BME280;6789;47.678;9.158;2023-07-09T22:00:26;97052.19;;;24.82;48.69
13434;BME280;6789;47.678;9.158;2023-07-09T22:05:25;97054.06;;;24.73;50.31
13434;BME280;6789;47.678;9.158;2023-07-09T22:10:23;97041.03;;;24.66;50.38
13434;BME280;6789;47.678;9.158;2023-07-09T22:15:25;97056.16;;;24.84;50.12
13434;BME280;6789;47.678;9.158;2023-07-09T22:20:22;97059.84;;;24.88;50.53
13434;BME280;6789;47.678;9.158;2023-07-09T22:25:23;97068.97;;;24.87;50.69
13434;BME280;6789;47.678;9.158;2023-07-09T22:30:17;97072.78;;;24.64;52.07
13434;BME280;6789;47.678;9.158;2023-07-09T22:35:14;97070.13;;;24.51;52.68
13434;BME280;6789;47.678;9.158;2023-07-09T22:45:04;97084.09;;;24.61;52.83
13434;BME280;6789;47.678;9.158;2023-07-09T22:49:56;97087.63;;;24.48;54.96
13434;BME280;6789;47.678;9.158;2023-07-09T22:54:48;97095.09;;;24.25;54.92
13434;BME280;6789;47.678;9.158;2023-07-09T22:59:40;97101.72;;;24.05;56.22
13434;BME280;6789;47.678;9.158;2023-07-09T23:04:32;97104.19;;;23.88;57.17
13434;BME280;6789;47.678;9.158;2023-07-09T23:09:24;97101.59;;;23.97;56.75
13434;BME280;6789;47.678;9.158;2023-07-09T23:14:24;97094.84;;;23.86;57.72
13434;BME280;6789;47.678;9.158;2023-07-09T23:19:25;97096.88;;;23.80;58.02
13434;BME280;6789;47.678;9.158;2023-07-09T23:24:19;97101.97;;;23.64;58.63
13434;BME280;6789;47.678;9.158;2023-07-09T23:29:13;97113.53;;;23.77;58.34
13434;BME280;6789;47.678;9.158;2023-07-09T23:34:13;97104.97;;;23.75;59.18
13434;BME280;6789;47.678;9.158;2023-07-09T23:39:07;97104.25;;;23.57;59.76
13434;BME280;6789;47.678;9.158;2023-07-09T23:44:01;97103.16;;;23.44;60.25
13434;BME280;6789;47.678;9.158;2023-07-09T23:48:55;97100.88;;;23.51;59.63
13434;BME280;6789;47.678;9.158;2023-07-09T23:54:01;97097.03;;;23.57;60.12
13434;BME280;6789;47.678;9.158;2023-07-09T23:58:54;97095.94;;;23.72;59.59
